createdAt,value
2022-11-08T00:00:14.121Z,2.43
2022-11-08T00:02:43.800Z,2.50
2022-11-08T00:05:29.541Z,2.20
2022-11-08T00:08:15.533Z,2.95
2022-11-08T00:11:01.060Z,2.67
2022-11-08T00:13:46.790Z,2.13
2022-11-08T00:16:14.843Z,2.40
2022-11-08T00:18:44.253Z,2.10
2022-11-08T00:21:12.359Z,2.80
2022-11-08T00:23:40.421Z,1.80
2022-11-08T00:26:08.472Z,2.60
2022-11-08T00:28:36.538Z,2.10
2022-11-08T00:31:07.076Z,2.60
2022-11-08T00:33:35.173Z,2.40
2022-11-08T00:36:05.502Z,2.47
2022-11-08T00:38:33.585Z,2.30
2022-11-08T00:41:01.640Z,2.20
2022-11-08T00:43:29.734Z,2.30
2022-11-08T00:45:57.824Z,2.10
2022-11-08T00:48:26.025Z,2.03
2022-11-08T00:50:54.214Z,2.15
2022-11-08T00:53:23.665Z,1.80
2022-11-08T00:55:59.963Z,2.20
2022-11-08T00:58:28.753Z,2.20
2022-11-08T01:00:57.798Z,2.47
2022-11-08T01:03:27.213Z,2.60
2022-11-08T01:05:56.151Z,1.95
2022-11-08T01:08:25.740Z,2.17
2022-11-08T01:10:53.942Z,1.90
2022-11-08T01:13:21.921Z,2.20
2022-11-08T01:15:50.195Z,2.20
2022-11-08T01:18:18.683Z,2.10
2022-11-08T01:20:48.716Z,3.10
2022-11-08T01:23:18.595Z,2.40
2022-11-08T01:25:49.687Z,2.10
2022-11-08T01:28:18.454Z,2.70
2022-11-08T01:30:47.329Z,2.60
2022-11-08T01:33:16.252Z,2.60
2022-11-08T01:35:46.365Z,2.90
2022-11-08T01:38:14.816Z,2.30
2022-11-08T01:40:49.613Z,2.10
2022-11-08T01:43:38.535Z,2.67
2022-11-08T01:46:43.384Z,2.25
2022-11-08T01:49:34.275Z,2.40
2022-11-08T01:52:17.559Z,2.30
2022-11-08T01:54:52.589Z,2.60
2022-11-08T01:57:24.793Z,2.65
2022-11-08T01:59:55.399Z,2.40
2022-11-08T02:02:23.946Z,2.30
2022-11-08T02:04:52.020Z,2.53
2022-11-08T02:09:58.104Z,2.30
2022-11-08T02:12:28.610Z,2.55
2022-11-08T02:14:56.571Z,2.20
2022-11-08T02:17:24.552Z,2.40
2022-11-08T02:19:52.595Z,2.45
2022-11-08T02:22:26.494Z,2.28
2022-11-08T02:24:56.124Z,2.10
2022-11-08T02:27:24.077Z,2.43
2022-11-08T02:29:54.608Z,2.30
2022-11-08T02:32:22.864Z,1.90
2022-11-08T02:34:54.723Z,2.03
2022-11-08T02:37:24.418Z,2.10
2022-11-08T02:39:52.298Z,2.05
2022-11-08T02:42:21.992Z,2.15
2022-11-08T02:44:50.160Z,2.80
2022-11-08T02:47:18.190Z,1.83
2022-11-08T02:49:46.083Z,2.05
2022-11-08T02:52:14.012Z,2.30
2022-11-08T02:54:41.926Z,2.22
2022-11-08T02:57:09.786Z,2.10
2022-11-08T02:59:39.039Z,2.20
2022-11-08T03:02:06.989Z,2.40
2022-11-08T03:04:35.003Z,2.60
2022-11-08T03:07:02.951Z,2.33
2022-11-08T03:09:30.941Z,2.70
2022-11-08T03:11:58.871Z,2.45
2022-11-08T03:14:26.751Z,1.95
2022-11-08T03:16:56.014Z,2.23
2022-11-08T03:19:23.880Z,2.40
2022-11-08T03:21:51.771Z,2.40
2022-11-08T03:24:19.643Z,2.30
2022-11-08T03:26:47.543Z,2.38
2022-11-08T03:29:15.407Z,2.33
2022-11-08T03:31:43.269Z,2.90
2022-11-08T03:34:12.640Z,2.17
2022-11-08T03:36:40.621Z,2.20
2022-11-08T03:39:08.558Z,2.13
2022-11-08T03:41:36.523Z,1.98
2022-11-08T03:44:04.429Z,2.00
2022-11-08T03:46:32.514Z,2.88
2022-11-08T03:49:00.401Z,2.22
2022-11-08T03:51:29.675Z,2.45
2022-11-08T03:53:57.552Z,2.30
2022-11-08T03:56:25.492Z,2.13
2022-11-08T03:58:53.372Z,2.45
2022-11-08T04:01:21.341Z,2.00
2022-11-08T04:03:49.335Z,2.15
2022-11-08T04:06:17.228Z,2.22
2022-11-08T04:08:46.572Z,1.85
2022-11-08T04:11:32.191Z,2.10
2022-11-08T04:14:17.770Z,2.20
2022-11-08T04:16:45.833Z,2.30
2022-11-08T04:19:31.221Z,2.13
2022-11-08T04:21:59.623Z,2.00
2022-11-08T04:24:28.860Z,2.20
2022-11-08T04:26:56.827Z,1.77
2022-11-08T04:29:24.779Z,2.40
2022-11-08T04:31:52.767Z,1.80
2022-11-08T04:34:20.662Z,2.10
2022-11-08T04:36:48.681Z,2.30
2022-11-08T04:39:16.716Z,2.20
2022-11-08T04:41:45.989Z,2.40
2022-11-08T04:44:15.514Z,2.20
2022-11-08T04:46:43.417Z,2.17
2022-11-08T04:49:11.312Z,2.00
2022-11-08T04:51:39.236Z,2.30
2022-11-08T04:54:07.770Z,1.90
2022-11-08T04:56:36.033Z,2.10
2022-11-08T04:59:08.366Z,2.60
2022-11-08T05:01:39.725Z,1.98
2022-11-08T05:04:07.820Z,2.30
2022-11-08T05:06:35.704Z,2.05
2022-11-08T05:09:04.045Z,2.33
2022-11-08T05:11:32.120Z,2.50
2022-11-08T05:14:00.312Z,2.22
2022-11-08T05:16:31.893Z,2.10
2022-11-08T05:19:00.246Z,2.05
2022-11-08T05:21:45.989Z,2.00
2022-11-08T05:24:16.145Z,2.00
2022-11-08T05:26:45.865Z,2.20
2022-11-08T05:29:15.155Z,2.00
2022-11-08T05:31:44.523Z,2.03
2022-11-08T05:34:12.552Z,2.40
2022-11-08T05:36:40.489Z,2.10
2022-11-08T05:39:08.407Z,2.53
2022-11-08T05:41:36.563Z,2.00
2022-11-08T05:44:04.569Z,1.63
2022-11-08T05:46:32.445Z,1.80
2022-11-08T05:49:01.878Z,2.30
2022-11-08T05:51:30.030Z,2.10
2022-11-08T05:53:57.905Z,2.35
2022-11-08T05:56:25.787Z,2.60
2022-11-08T05:58:53.793Z,2.30
2022-11-08T06:01:21.711Z,2.20
2022-11-08T06:03:49.653Z,2.00
2022-11-08T06:06:20.641Z,2.17
2022-11-08T06:08:51.706Z,2.20
2022-11-08T06:11:23.847Z,1.80
2022-11-08T06:13:52.487Z,2.10
2022-11-08T06:16:22.305Z,2.20
2022-11-08T06:18:50.574Z,1.90
2022-11-08T06:21:21.286Z,1.92
2022-11-08T06:23:52.471Z,1.90
2022-11-08T06:26:20.405Z,2.08
2022-11-08T06:28:48.305Z,1.70
2022-11-08T06:31:16.274Z,2.40
2022-11-08T06:33:44.148Z,2.00
2022-11-08T06:36:12.033Z,2.00
2022-11-08T06:38:41.340Z,1.70
2022-11-08T06:41:16.173Z,1.80
2022-11-08T06:43:44.143Z,2.13
2022-11-08T06:46:12.035Z,1.80
2022-11-08T06:48:39.957Z,1.77
2022-11-08T06:51:08.045Z,1.85
2022-11-08T06:53:36.216Z,1.80
2022-11-08T06:56:05.954Z,2.30
2022-11-08T06:58:33.852Z,1.88
2022-11-08T07:01:04.318Z,2.13
2022-11-08T07:03:32.217Z,2.00
2022-11-08T07:06:02.847Z,1.90
2022-11-08T07:08:30.979Z,1.70
2022-11-08T07:10:59.058Z,1.70
2022-11-08T07:13:28.356Z,2.03
2022-11-08T07:15:59.538Z,1.50
2022-11-08T07:18:27.568Z,1.50
2022-11-08T07:20:59.792Z,1.67
2022-11-08T07:23:28.090Z,1.85
2022-11-08T07:25:56.453Z,1.70
2022-11-08T07:28:24.385Z,2.08
2022-11-08T07:30:59.963Z,1.85
2022-11-08T07:33:28.066Z,1.70
2022-11-08T07:35:56.102Z,1.80
2022-11-08T07:38:26.079Z,1.77
2022-11-08T07:40:57.022Z,1.63
2022-11-08T07:43:25.238Z,1.60
2022-11-08T07:45:57.376Z,1.70
2022-11-08T07:48:25.986Z,1.40
2022-11-08T07:50:54.201Z,1.70
2022-11-08T07:53:22.699Z,1.70
2022-11-08T07:55:50.719Z,2.10
2022-11-08T07:58:19.005Z,1.45
2022-11-08T08:00:49.817Z,1.52
2022-11-08T08:03:19.724Z,1.35
2022-11-08T08:05:57.968Z,1.42
2022-11-08T08:08:29.079Z,1.60
2022-11-08T08:10:59.357Z,1.48
2022-11-08T08:13:27.577Z,1.70
2022-11-08T08:15:58.552Z,1.48
2022-11-08T08:18:28.006Z,1.95
2022-11-08T08:20:55.928Z,1.60
2022-11-08T08:23:23.884Z,1.80
2022-11-08T08:25:52.818Z,1.50
2022-11-08T08:28:20.805Z,1.53
2022-11-08T08:30:48.714Z,1.50
2022-11-08T08:33:33.719Z,1.63
2022-11-08T08:36:03.129Z,1.70
2022-11-08T08:38:32.022Z,2.03
2022-11-08T08:41:00.493Z,1.42
2022-11-08T08:43:28.866Z,1.65
2022-11-08T08:46:00.084Z,1.50
2022-11-08T08:48:28.462Z,1.90
2022-11-08T08:50:56.759Z,1.60
2022-11-08T08:53:26.225Z,1.73
2022-11-08T08:55:54.231Z,1.80
2022-11-08T08:58:22.631Z,1.52
2022-11-08T09:03:38.912Z,1.70
2022-11-08T09:06:07.099Z,2.10
2022-11-08T09:08:36.439Z,1.88
2022-11-08T09:11:04.383Z,1.60
2022-11-08T09:13:32.557Z,1.90
2022-11-08T09:16:03.428Z,1.80
2022-11-08T09:18:31.879Z,1.90
2022-11-08T09:21:00.520Z,1.70
2022-11-08T09:23:28.438Z,1.50
2022-11-08T09:26:02.323Z,1.67
2022-11-08T09:28:32.384Z,1.42
2022-11-08T09:31:05.085Z,1.70
2022-11-08T09:33:33.386Z,1.67
2022-11-08T09:36:01.879Z,1.70
2022-11-08T09:38:30.202Z,1.88
2022-11-08T09:41:17.274Z,1.92
2022-11-08T09:44:01.020Z,1.85
2022-11-08T09:46:38.918Z,1.52
2022-11-08T09:49:11.636Z,1.73
2022-11-08T09:51:41.172Z,1.90
2022-11-08T09:54:19.420Z,1.90
2022-11-08T09:56:49.406Z,2.08
2022-11-08T09:59:32.831Z,2.28
2022-11-08T10:02:00.783Z,1.90
2022-11-08T10:04:31.806Z,1.93
2022-11-08T10:07:24.799Z,1.92
2022-11-08T10:10:05.301Z,3.50
2022-11-08T10:12:38.588Z,1.63
2022-11-08T10:15:13.883Z,1.70
2022-11-08T10:17:56.631Z,1.90
2022-11-08T10:20:29.269Z,1.85
2022-11-08T10:23:01.496Z,1.90
2022-11-08T10:25:32.384Z,1.80
2022-11-08T10:28:03.748Z,1.70
2022-11-08T10:30:34.410Z,2.00
2022-11-08T10:33:02.722Z,1.60
2022-11-08T10:35:33.834Z,1.90
2022-11-08T10:38:03.413Z,1.75
2022-11-08T10:40:37.129Z,1.90
2022-11-08T10:43:10.557Z,1.70
2022-11-08T10:45:38.955Z,2.00
2022-11-08T10:48:07.522Z,2.70
2022-11-08T10:50:42.213Z,1.52
2022-11-08T10:53:14.566Z,1.70
2022-11-08T10:55:48.543Z,1.70
2022-11-08T10:58:37.995Z,2.25
2022-11-08T11:01:07.959Z,2.17
2022-11-08T11:03:36.173Z,2.10
2022-11-08T11:06:05.787Z,2.10
2022-11-08T11:08:35.015Z,1.90
2022-11-08T11:11:25.483Z,2.25
2022-11-08T11:14:18.282Z,1.83
2022-11-08T11:16:56.678Z,1.80
2022-11-08T11:19:25.652Z,2.13
2022-11-08T11:21:58.371Z,1.90
2022-11-08T11:24:26.720Z,1.70
2022-11-08T11:27:04.971Z,2.40
2022-11-08T11:29:35.556Z,2.08
2022-11-08T11:32:23.240Z,1.60
2022-11-08T11:34:55.358Z,1.80
2022-11-08T11:37:34.162Z,1.90
2022-11-08T11:40:14.096Z,1.57
2022-11-08T11:42:46.486Z,1.60
2022-11-08T11:45:20.265Z,1.60
2022-11-08T11:47:49.381Z,1.75
2022-11-08T11:50:22.548Z,1.70
2022-11-08T11:52:50.756Z,1.80
2022-11-08T11:55:19.529Z,2.10
2022-11-08T11:57:54.298Z,1.85
2022-11-08T12:00:23.994Z,2.20
2022-11-08T12:03:15.735Z,1.88
2022-11-08T12:05:50.863Z,2.30
2022-11-08T12:08:23.004Z,1.98
2022-11-08T12:10:56.899Z,2.00
2022-11-08T12:13:31.414Z,1.90
2022-11-08T12:16:02.937Z,1.95
2022-11-08T12:18:43.155Z,1.87
2022-11-08T12:21:14.789Z,1.80
2022-11-08T12:23:55.432Z,1.88
2022-11-08T12:26:25.663Z,1.80
2022-11-08T12:29:03.123Z,1.70
2022-11-08T12:31:34.777Z,2.22
2022-11-08T12:34:08.701Z,1.63
2022-11-08T12:36:38.451Z,1.80
2022-11-08T12:39:11.503Z,1.63
2022-11-08T12:41:46.253Z,1.45
2022-11-08T12:44:32.150Z,2.00
2022-11-08T12:47:06.590Z,1.60
2022-11-08T12:49:38.458Z,1.83
2022-11-08T12:52:15.727Z,1.60
2022-11-08T12:54:45.474Z,2.10
2022-11-08T12:57:14.509Z,2.15
2022-11-08T12:59:44.583Z,1.85
2022-11-08T13:02:18.707Z,1.60
2022-11-08T13:04:55.736Z,1.90
2022-11-08T13:07:30.496Z,2.20
2022-11-08T13:10:02.275Z,2.05
2022-11-08T13:12:34.873Z,2.13
2022-11-08T13:15:03.920Z,2.20
2022-11-08T13:17:33.509Z,1.77
2022-11-08T13:20:05.917Z,1.80
2022-11-08T13:22:51.948Z,2.58
2022-11-08T13:25:36.355Z,2.00
2022-11-08T13:28:26.652Z,1.50
2022-11-08T13:30:58.822Z,1.70
2022-11-08T13:33:30.377Z,1.80
2022-11-08T13:36:06.134Z,1.83
2022-11-08T13:38:40.184Z,1.83
2022-11-08T13:41:13.375Z,1.80
2022-11-08T13:43:41.580Z,1.92
2022-11-08T13:46:29.441Z,2.30
2022-11-08T13:49:06.415Z,2.10
2022-11-08T13:51:36.005Z,1.90
2022-11-08T13:54:05.680Z,1.70
2022-11-08T13:56:45.094Z,2.20
2022-11-08T13:59:31.921Z,2.20
2022-11-08T14:02:03.284Z,2.00
2022-11-08T14:04:34.852Z,1.80
2022-11-08T14:07:08.179Z,2.17
2022-11-08T14:09:43.956Z,1.50
2022-11-08T14:12:15.981Z,1.63
2022-11-08T14:14:49.076Z,2.30
2022-11-08T14:17:25.238Z,2.00
2022-11-08T14:19:55.516Z,2.10
2022-11-08T14:22:25.359Z,1.45
2022-11-08T14:24:54.527Z,1.50
2022-11-08T14:27:36.012Z,1.98
2022-11-08T14:30:05.233Z,2.10
2022-11-08T14:32:33.695Z,1.70
2022-11-08T14:35:21.197Z,1.75
2022-11-08T14:37:49.962Z,1.60
2022-11-08T14:40:19.239Z,1.90
2022-11-08T14:42:47.698Z,1.75
2022-11-08T14:45:16.633Z,2.20
2022-11-08T14:47:45.210Z,1.90
2022-11-08T14:50:19.080Z,1.70
2022-11-08T14:52:47.474Z,2.40
2022-11-08T14:55:16.466Z,2.00
2022-11-08T14:57:45.261Z,1.90
2022-11-08T15:00:18.921Z,1.80
2022-11-08T15:02:48.405Z,1.65
2022-11-08T15:05:33.292Z,1.90
2022-11-08T15:08:02.110Z,1.83
2022-11-08T15:10:30.737Z,1.90
2022-11-08T15:12:59.064Z,1.60
2022-11-08T15:15:31.141Z,1.90
2022-11-08T15:18:15.706Z,1.95
2022-11-08T15:20:56.049Z,2.03
2022-11-08T15:23:24.972Z,1.90
2022-11-08T15:25:57.426Z,1.93
2022-11-08T15:28:26.999Z,1.77
2022-11-08T15:30:57.266Z,1.90
2022-11-08T15:33:26.097Z,1.60
2022-11-08T15:35:55.686Z,1.80
2022-11-08T15:38:30.360Z,1.58
2022-11-08T15:40:59.780Z,1.98
2022-11-08T15:43:37.426Z,1.80
2022-11-08T15:46:06.427Z,1.80
2022-11-08T15:48:34.872Z,2.10
2022-11-08T15:51:05.959Z,2.10
2022-11-08T15:53:35.565Z,2.10
2022-11-08T15:56:04.713Z,1.90
2022-11-08T15:58:34.128Z,1.48
2022-11-08T16:01:03.357Z,1.70
2022-11-08T16:03:33.637Z,2.03
2022-11-08T16:06:01.932Z,2.10
2022-11-08T16:08:31.528Z,2.00
2022-11-08T16:11:01.354Z,2.40
2022-11-08T16:13:30.861Z,3.30
2022-11-08T16:15:59.975Z,4.50
2022-11-08T16:18:32.276Z,6.00
2022-11-08T16:21:00.529Z,6.70
2022-11-08T16:23:28.802Z,8.10
2022-11-08T16:26:00.816Z,7.90
2022-11-08T16:28:29.748Z,6.47
2022-11-08T16:30:58.278Z,5.30
2022-11-08T16:33:27.139Z,5.13
2022-11-08T16:35:56.272Z,3.85
2022-11-08T16:38:27.201Z,3.20
2022-11-08T16:40:55.820Z,3.35
2022-11-08T16:43:25.390Z,2.80
2022-11-08T16:46:08.895Z,2.70
2022-11-08T16:48:39.324Z,2.50
2022-11-08T16:51:08.608Z,2.50
2022-11-08T16:53:37.841Z,2.75
2022-11-08T16:56:06.107Z,2.40
2022-11-08T16:58:35.712Z,1.90
2022-11-08T17:01:10.173Z,2.45
2022-11-08T17:03:38.755Z,3.00
2022-11-08T17:06:07.164Z,2.60
2022-11-08T17:08:35.457Z,2.20
2022-11-08T17:11:03.751Z,2.30
2022-11-08T17:13:36.155Z,2.50
2022-11-08T17:16:10.637Z,2.00
2022-11-08T17:18:38.869Z,2.50
2022-11-08T17:21:30.319Z,2.58
2022-11-08T17:23:55.669Z,4.50
2022-11-08T17:26:23.872Z,5.50
2022-11-08T17:28:52.122Z,7.15
2022-11-08T17:31:21.746Z,5.50
2022-11-08T17:33:49.993Z,4.25
2022-11-08T17:36:18.208Z,4.68
2022-11-08T17:38:46.412Z,3.88
2022-11-08T17:41:15.510Z,3.95
2022-11-08T17:43:44.340Z,3.97
2022-11-08T17:46:12.949Z,3.17
2022-11-08T17:48:42.716Z,3.47
2022-11-08T17:51:12.001Z,3.38
2022-11-08T17:53:40.249Z,4.07
2022-11-08T17:56:08.768Z,3.50
2022-11-08T17:58:37.989Z,3.72
2022-11-08T18:01:06.942Z,3.90
2022-11-08T18:03:35.337Z,3.20
2022-11-08T18:06:05.803Z,3.10
2022-11-08T18:08:34.936Z,3.00
2022-11-08T18:11:03.281Z,3.10
2022-11-08T18:13:32.465Z,2.90
2022-11-08T18:16:06.715Z,3.20
2022-11-08T18:18:35.055Z,3.17
2022-11-08T18:21:04.787Z,2.95
2022-11-08T18:23:33.360Z,2.50
2022-11-08T18:26:01.848Z,3.10
2022-11-08T18:28:30.451Z,2.30
2022-11-08T18:31:05.787Z,2.53
2022-11-08T18:33:34.088Z,3.20
2022-11-08T18:36:05.909Z,3.60
2022-11-08T18:38:35.431Z,4.13
2022-11-08T18:41:03.716Z,3.17
2022-11-08T18:43:31.917Z,2.80
2022-11-08T18:46:03.269Z,2.92
2022-11-08T18:48:32.308Z,2.90
2022-11-08T18:51:00.682Z,2.80
2022-11-08T18:53:30.433Z,2.53
2022-11-08T18:55:58.749Z,2.88
2022-11-08T18:58:27.322Z,2.60
2022-11-08T19:00:56.287Z,2.20
2022-11-08T19:03:24.981Z,2.50
2022-11-08T19:05:53.265Z,2.10
2022-11-08T19:08:25.084Z,2.20
2022-11-08T19:10:55.232Z,2.00
2022-11-08T19:13:24.251Z,2.13
2022-11-08T19:15:57.232Z,2.00
2022-11-08T19:18:25.510Z,2.00
2022-11-08T19:20:57.914Z,2.03
2022-11-08T19:23:26.391Z,2.90
2022-11-08T19:25:56.864Z,2.03
2022-11-08T19:28:28.016Z,2.45
2022-11-08T19:31:00.097Z,2.30
2022-11-08T19:33:29.182Z,2.25
2022-11-08T19:35:57.502Z,2.50
2022-11-08T19:38:25.729Z,2.20
2022-11-08T19:40:53.975Z,2.28
2022-11-08T19:43:23.574Z,2.40
2022-11-08T19:45:54.336Z,2.47
2022-11-08T19:48:22.667Z,2.30
2022-11-08T19:50:51.669Z,2.50
2022-11-08T19:53:19.880Z,2.40
2022-11-08T19:55:48.118Z,2.95
2022-11-08T19:58:16.467Z,2.30
2022-11-08T20:00:46.251Z,2.53
2022-11-08T20:03:14.492Z,2.65
2022-11-08T20:05:42.666Z,2.22
2022-11-08T20:08:11.252Z,2.42
2022-11-08T20:10:39.451Z,2.20
2022-11-08T20:13:09.542Z,2.70
2022-11-08T20:15:37.745Z,2.80
2022-11-08T20:18:08.397Z,2.20
2022-11-08T20:20:36.760Z,2.40
2022-11-08T20:23:05.174Z,2.40
2022-11-08T20:25:34.205Z,2.30
2022-11-08T20:28:02.470Z,2.90
2022-11-08T20:30:30.722Z,2.83
2022-11-08T20:32:59.176Z,2.70
2022-11-08T20:35:28.802Z,2.58
2022-11-08T20:37:58.128Z,2.75
2022-11-08T20:40:26.627Z,2.40
2022-11-08T20:42:54.820Z,2.20
2022-11-08T20:45:23.027Z,2.35
2022-11-08T20:47:51.346Z,2.30
2022-11-08T20:50:19.605Z,2.20
2022-11-08T20:52:49.201Z,2.40
2022-11-08T20:55:17.527Z,2.58
2022-11-08T20:57:45.835Z,2.40
2022-11-08T21:00:17.711Z,2.47
2022-11-08T21:02:48.865Z,2.07
2022-11-08T21:05:17.225Z,2.45
2022-11-08T21:08:09.489Z,2.22
2022-11-08T21:10:43.098Z,2.00
2022-11-08T21:13:11.944Z,1.80
2022-11-08T21:15:40.209Z,2.17
2022-11-08T21:18:09.508Z,2.30
2022-11-08T21:20:37.715Z,2.60
2022-11-08T21:23:06.005Z,2.10
2022-11-08T21:25:35.635Z,2.65
2022-11-08T21:28:03.890Z,2.67
2022-11-08T21:30:32.131Z,2.42
2022-11-08T21:33:00.381Z,1.80
2022-11-08T21:35:28.636Z,2.00
2022-11-08T21:37:56.912Z,2.20
2022-11-08T21:40:25.134Z,2.03
2022-11-08T21:42:54.758Z,1.92
2022-11-08T21:45:23.003Z,1.95
2022-11-08T21:47:51.807Z,2.33
2022-11-08T21:50:20.148Z,2.00
2022-11-08T21:52:48.895Z,2.03
2022-11-08T21:55:17.532Z,2.65
2022-11-08T21:57:45.926Z,2.10
2022-11-08T22:00:16.399Z,2.60
2022-11-08T22:02:44.735Z,2.60
2022-11-08T22:05:13.051Z,2.60
2022-11-08T22:07:41.387Z,2.40
2022-11-08T22:10:11.614Z,2.30
2022-11-08T22:12:40.092Z,2.60
2022-11-08T22:15:09.386Z,2.20
2022-11-08T22:17:45.983Z,2.30
2022-11-08T22:20:27.237Z,2.30
2022-11-08T22:22:55.585Z,2.30
2022-11-08T22:25:23.878Z,1.90
2022-11-08T22:27:52.473Z,2.10
2022-11-08T22:30:20.753Z,2.40
2022-11-08T22:32:50.386Z,2.13
2022-11-08T22:35:18.796Z,2.20
2022-11-08T22:37:47.475Z,1.98
2022-11-08T22:40:17.075Z,2.50
2022-11-08T22:42:45.392Z,1.90
2022-11-08T22:45:13.671Z,2.40
2022-11-08T22:47:41.961Z,2.30
2022-11-08T22:50:11.808Z,2.20
2022-11-08T22:52:40.071Z,2.20
2022-11-08T22:55:08.788Z,2.20
2022-11-08T22:57:37.029Z,2.10
2022-11-08T23:00:09.961Z,2.60
2022-11-08T23:02:38.251Z,2.20
2022-11-08T23:05:06.747Z,3.05
2022-11-08T23:07:36.445Z,2.00
2022-11-08T23:10:05.060Z,2.10
2022-11-08T23:12:50.834Z,2.30
2022-11-08T23:15:48.311Z,2.40
2022-11-08T23:18:16.620Z,2.20
2022-11-08T23:21:02.615Z,2.10
2022-11-08T23:23:55.329Z,2.20
2022-11-08T23:26:38.222Z,1.90
2022-11-08T23:29:23.997Z,2.20
2022-11-08T23:31:52.177Z,2.67
2022-11-08T23:34:20.387Z,2.40
2022-11-08T23:36:48.614Z,2.60
2022-11-08T23:39:18.237Z,2.20
2022-11-08T23:42:00.334Z,2.25
2022-11-08T23:44:28.591Z,2.20
2022-11-08T23:46:57.503Z,2.40
2022-11-08T23:49:26.042Z,2.45
2022-11-08T23:51:54.550Z,2.50
2022-11-08T23:54:24.193Z,1.90
2022-11-08T23:56:52.837Z,2.60
2022-11-08T23:59:21.064Z,2.00
